createdAt,value
2019-06-26T00:00:03.547Z,7.10
2019-06-26T00:02:35.694Z,7.30
2019-06-26T00:10:06.591Z,7.10
2019-06-26T00:15:06.492Z,7.40
2019-06-26T00:20:07.539Z,7.70
2019-06-26T00:35:04.193Z,8.10
2019-06-26T00:47:32.235Z,7.53
2019-06-26T00:50:02.362Z,6.87
2019-06-26T00:52:32.587Z,7.53
2019-06-26T00:55:02.752Z,7.70
2019-06-26T00:57:34.106Z,7.43
2019-06-26T01:00:09.551Z,7.30
2019-06-26T01:02:40.150Z,7.75
2019-06-26T01:05:11.427Z,8.67
2019-06-26T01:07:41.680Z,8.70
2019-06-26T01:10:12.576Z,8.20
2019-06-26T01:12:43.993Z,8.50
2019-06-26T01:15:14.343Z,7.80
2019-06-26T01:17:44.566Z,7.80
2019-06-26T01:20:14.967Z,8.53
2019-06-26T01:22:45.262Z,7.87
2019-06-26T01:25:15.644Z,7.40
2019-06-26T01:27:45.986Z,7.40
2019-06-26T01:30:16.406Z,8.63
2019-06-26T01:32:46.691Z,8.05
2019-06-26T01:35:16.803Z,8.13
2019-06-26T01:37:46.986Z,8.25
2019-06-26T01:40:17.608Z,7.33
2019-06-26T01:42:48.531Z,7.83
2019-06-26T01:45:19.288Z,7.83
2019-06-26T01:47:49.504Z,7.60
2019-06-26T01:50:19.802Z,7.80
2019-06-26T01:52:50.129Z,8.30
2019-06-26T01:55:20.324Z,8.17
2019-06-26T01:57:50.543Z,8.30
2019-06-26T02:00:21.713Z,6.80
2019-06-26T02:02:51.892Z,8.20
2019-06-26T02:05:21.967Z,8.53
2019-06-26T02:07:52.094Z,10.13
2019-06-26T02:10:22.435Z,9.23
2019-06-26T02:12:52.571Z,8.90
2019-06-26T02:15:23.045Z,9.03
2019-06-26T02:17:53.161Z,8.00
2019-06-26T02:20:23.401Z,7.33
2019-06-26T02:22:53.566Z,7.60
2019-06-26T02:25:23.644Z,8.63
2019-06-26T02:27:53.813Z,8.30
2019-06-26T02:30:23.941Z,8.30
2019-06-26T02:32:54.096Z,9.10
2019-06-26T02:35:24.348Z,8.70
2019-06-26T02:37:54.570Z,7.00
2019-06-26T02:40:24.795Z,7.60
2019-06-26T02:42:55.292Z,8.83
2019-06-26T02:45:25.968Z,8.40
2019-06-26T02:47:56.178Z,8.57
2019-06-26T02:50:26.756Z,7.97
2019-06-26T02:52:56.913Z,7.70
2019-06-26T02:55:27.021Z,8.23
2019-06-26T02:57:57.183Z,8.57
2019-06-26T03:00:27.310Z,9.50
2019-06-26T03:02:57.591Z,7.93
2019-06-26T03:05:27.688Z,7.63
2019-06-26T03:07:57.949Z,7.30
2019-06-26T03:10:28.537Z,8.33
2019-06-26T03:12:59.008Z,8.13
2019-06-26T03:15:29.187Z,8.90
2019-06-26T03:17:59.478Z,8.77
2019-06-26T03:20:33.543Z,8.07
2019-06-26T03:23:03.986Z,8.93
2019-06-26T03:25:34.422Z,8.33
2019-06-26T03:28:04.604Z,8.60
2019-06-26T03:30:34.755Z,8.90
2019-06-26T03:33:04.958Z,8.40
2019-06-26T03:35:35.092Z,9.00
2019-06-26T03:38:05.793Z,8.57
2019-06-26T03:40:36.241Z,8.33
2019-06-26T03:43:06.352Z,7.80
2019-06-26T03:45:36.555Z,8.33
2019-06-26T03:48:06.927Z,7.70
2019-06-26T03:50:37.159Z,7.83
2019-06-26T03:53:07.410Z,8.60
2019-06-26T03:55:37.520Z,18.30
2019-06-26T04:00:40.093Z,7.30
2019-06-26T04:03:10.259Z,7.80
2019-06-26T04:05:40.398Z,7.10
2019-06-26T04:08:10.508Z,7.23
2019-06-26T04:10:43.185Z,7.60
2019-06-26T04:13:12.620Z,8.47
2019-06-26T04:18:13.373Z,8.35
2019-06-26T04:20:43.499Z,7.65
2019-06-26T04:35:39.773Z,6.90
2019-06-26T04:40:39.144Z,7.10
2019-06-26T04:43:09.343Z,7.65
2019-06-26T04:48:09.048Z,7.60
2019-06-26T04:55:38.393Z,7.60
2019-06-26T05:05:39.963Z,7.70
2019-06-26T05:08:10.214Z,7.95
2019-06-26T05:10:46.337Z,7.50
2019-06-26T05:13:16.821Z,7.10
2019-06-26T05:15:47.522Z,7.50
2019-06-26T05:18:18.162Z,7.20
2019-06-26T05:20:48.882Z,7.50
2019-06-26T05:23:19.582Z,8.50
2019-06-26T05:25:50.363Z,7.17
2019-06-26T05:28:37.858Z,8.40
2019-06-26T05:33:37.846Z,7.77
2019-06-26T05:36:08.778Z,7.50
2019-06-26T05:38:39.072Z,7.00
2019-06-26T05:41:11.282Z,6.50
2019-06-26T05:43:41.925Z,8.00
2019-06-26T05:46:12.847Z,7.20
2019-06-26T05:48:43.878Z,7.50
2019-06-26T05:51:15.048Z,6.53
2019-06-26T05:53:45.401Z,6.95
2019-06-26T05:56:15.862Z,6.75
2019-06-26T05:58:47.361Z,6.50
2019-06-26T06:01:19.427Z,6.63
2019-06-26T06:03:49.860Z,6.00
2019-06-26T06:06:20.194Z,6.00
2019-06-26T06:08:50.440Z,5.60
2019-06-26T06:11:20.743Z,6.10
2019-06-26T06:13:51.325Z,6.20
2019-06-26T06:16:21.786Z,5.30
2019-06-26T06:21:21.696Z,6.40
2019-06-26T06:23:52.029Z,5.80
2019-06-26T06:26:22.322Z,6.50
2019-06-26T06:28:52.616Z,5.30
2019-06-26T06:31:22.857Z,5.80
2019-06-26T06:33:54.155Z,6.10
2019-06-26T06:38:53.564Z,5.40
2019-06-26T06:41:23.812Z,6.80
2019-06-26T06:43:54.109Z,4.90
2019-06-26T06:56:21.803Z,4.60
2019-06-26T06:58:52.266Z,4.30
2019-06-26T07:01:22.622Z,4.45
2019-06-26T07:03:53.247Z,4.70
2019-06-26T07:06:23.575Z,4.30
2019-06-26T07:08:53.857Z,4.90
2019-06-26T07:11:24.138Z,4.25
2019-06-26T07:16:23.524Z,4.33
2019-06-26T07:18:53.889Z,3.70
2019-06-26T07:23:53.068Z,4.12
2019-06-26T07:26:23.302Z,4.08
2019-06-26T07:28:53.663Z,3.50
2019-06-26T07:31:23.995Z,3.35
2019-06-26T07:33:55.718Z,3.35
2019-06-26T07:36:26.487Z,3.50
2019-06-26T07:38:58.172Z,3.50
2019-06-26T07:41:28.423Z,3.12
2019-06-26T07:43:58.558Z,3.02
2019-06-26T07:46:29.045Z,2.87
2019-06-26T07:48:59.693Z,2.83
2019-06-26T07:51:32.154Z,2.90
2019-06-26T07:54:02.400Z,2.45
2019-06-26T07:56:32.572Z,2.65
2019-06-26T07:59:02.854Z,2.30
2019-06-26T08:01:33.243Z,2.20
2019-06-26T08:04:04.918Z,2.70
2019-06-26T08:06:35.213Z,2.47
2019-06-26T08:09:06.689Z,2.70
2019-06-26T08:11:37.015Z,2.37
2019-06-26T08:14:07.739Z,2.15
2019-06-26T08:16:37.976Z,1.43
2019-06-26T08:19:08.454Z,3.05
2019-06-26T08:21:38.549Z,2.00
2019-06-26T08:24:08.698Z,1.87
2019-06-26T08:26:38.837Z,1.90
2019-06-26T08:29:09.129Z,2.02
2019-06-26T08:31:39.729Z,1.95
2019-06-26T08:34:10.329Z,2.20
2019-06-26T08:36:40.534Z,1.80
2019-06-26T08:39:10.769Z,2.00
2019-06-26T08:41:40.972Z,1.90
2019-06-26T08:44:11.144Z,2.05
2019-06-26T08:46:41.485Z,1.87
2019-06-26T08:49:24.896Z,1.85
2019-06-26T08:51:43.799Z,2.37
2019-06-26T08:54:13.987Z,1.90
2019-06-26T08:56:44.130Z,1.67
2019-06-26T08:59:14.350Z,1.98
2019-06-26T09:01:44.490Z,1.60
2019-06-26T09:04:15.863Z,1.52
2019-06-26T09:06:46.014Z,1.37
2019-06-26T09:09:16.168Z,1.75
2019-06-26T09:11:46.483Z,1.70
2019-06-26T09:14:16.770Z,1.55
2019-06-26T09:16:47.149Z,1.30
2019-06-26T09:19:17.638Z,1.47
2019-06-26T09:21:50.897Z,1.30
2019-06-26T09:24:19.965Z,1.40
2019-06-26T09:26:51.269Z,1.30
2019-06-26T09:29:24.003Z,1.10
2019-06-26T09:31:53.678Z,1.42
2019-06-26T09:34:23.928Z,1.47
2019-06-26T09:36:54.065Z,1.50
2019-06-26T09:39:25.139Z,1.10
2019-06-26T09:41:55.454Z,1.65
2019-06-26T09:44:25.728Z,1.57
2019-06-26T09:46:55.870Z,1.35
2019-06-26T09:49:25.995Z,1.40
2019-06-26T09:51:56.488Z,1.27
2019-06-26T09:54:26.739Z,1.45
2019-06-26T09:56:56.932Z,1.22
2019-06-26T09:59:27.119Z,1.27
2019-06-26T10:01:57.271Z,0.85
2019-06-26T10:04:27.407Z,1.02
2019-06-26T10:06:57.791Z,1.15
2019-06-26T10:09:28.268Z,1.10
2019-06-26T10:11:58.626Z,0.80
2019-06-26T10:14:46.191Z,1.72
2019-06-26T10:17:01.048Z,1.30
2019-06-26T10:19:31.696Z,0.90
2019-06-26T10:22:02.372Z,1.52
2019-06-26T10:24:32.711Z,0.80
2019-06-26T10:27:02.960Z,0.93
2019-06-26T10:29:33.136Z,0.88
2019-06-26T10:32:03.442Z,0.70
2019-06-26T10:34:33.668Z,0.70
2019-06-26T10:37:04.035Z,1.10
2019-06-26T10:39:35.673Z,0.70
2019-06-26T10:42:06.055Z,0.80
2019-06-26T10:44:36.205Z,0.72
2019-06-26T10:47:06.503Z,0.88
2019-06-26T10:49:36.732Z,1.15
2019-06-26T10:52:07.065Z,0.70
2019-06-26T10:54:37.332Z,1.30
2019-06-26T10:57:07.637Z,1.50
2019-06-26T10:59:38.136Z,1.40
2019-06-26T11:02:08.844Z,1.80
2019-06-26T11:04:39.160Z,2.22
2019-06-26T11:07:09.847Z,2.40
2019-06-26T11:09:40.145Z,2.67
2019-06-26T11:12:10.507Z,2.40
2019-06-26T11:14:41.717Z,3.17
2019-06-26T11:17:11.995Z,3.00
2019-06-26T11:19:44.221Z,3.10
2019-06-26T11:22:15.409Z,3.33
2019-06-26T11:24:47.340Z,3.40
2019-06-26T11:27:17.710Z,3.95
2019-06-26T11:29:48.255Z,3.62
2019-06-26T11:32:18.741Z,4.10
2019-06-26T11:34:49.185Z,3.05
2019-06-26T11:37:22.826Z,3.98
2019-06-26T11:39:51.676Z,4.12
2019-06-26T11:42:25.262Z,3.60
2019-06-26T11:44:55.544Z,3.85
2019-06-26T11:47:25.961Z,3.33
2019-06-26T11:50:00.323Z,3.87
2019-06-26T11:52:29.100Z,4.28
2019-06-26T11:55:03.129Z,4.25
2019-06-26T11:57:32.365Z,4.75
2019-06-26T12:00:02.773Z,3.90
2019-06-26T12:02:33.151Z,4.15
2019-06-26T12:05:03.504Z,4.80
2019-06-26T12:07:33.720Z,4.33
2019-06-26T12:10:04.802Z,4.40
2019-06-26T12:12:35.137Z,4.62
2019-06-26T12:15:06.529Z,4.42
2019-06-26T12:17:36.856Z,4.58
2019-06-26T12:20:18.093Z,4.80
2019-06-26T12:31:02.676Z,5.05
2019-06-26T12:33:32.948Z,5.40
2019-06-26T12:36:03.249Z,5.13
2019-06-26T12:38:33.713Z,4.40
2019-06-26T12:41:04.488Z,5.10
2019-06-26T12:43:34.658Z,5.37
2019-06-26T12:46:04.911Z,4.42
2019-06-26T12:48:35.185Z,4.72
2019-06-26T12:51:05.765Z,5.03
2019-06-26T12:53:36.074Z,5.15
2019-06-26T12:56:06.546Z,4.75
2019-06-26T12:58:36.841Z,5.47
2019-06-26T13:01:07.068Z,5.03
2019-06-26T13:03:37.266Z,5.40
2019-06-26T13:06:07.676Z,4.87
2019-06-26T13:08:38.327Z,5.13
2019-06-26T13:11:08.833Z,4.67
2019-06-26T13:13:39.144Z,4.45
2019-06-26T13:16:09.755Z,4.90
2019-06-26T13:18:40.119Z,5.25
2019-06-26T13:21:10.570Z,5.03
2019-06-26T13:23:40.945Z,5.30
2019-06-26T13:26:11.396Z,5.12
2019-06-26T13:28:41.797Z,7.25
2019-06-26T13:31:12.125Z,5.23
2019-06-26T13:33:42.541Z,4.90
2019-06-26T13:36:13.497Z,4.92
2019-06-26T13:38:44.230Z,5.20
2019-06-26T13:41:16.064Z,4.53
2019-06-26T13:43:46.471Z,4.80
2019-06-26T13:46:17.215Z,5.37
2019-06-26T13:48:47.862Z,5.43
2019-06-26T13:51:21.493Z,4.50
2019-06-26T13:53:50.891Z,4.35
2019-06-26T13:56:21.262Z,5.00
2019-06-26T13:58:52.010Z,4.70
2019-06-26T14:01:23.311Z,5.13
2019-06-26T14:03:53.898Z,4.80
2019-06-26T14:06:24.486Z,4.20
2019-06-26T14:08:55.107Z,5.13
2019-06-26T14:11:25.500Z,5.20
2019-06-26T14:13:56.341Z,4.67
2019-06-26T14:16:29.772Z,5.17
2019-06-26T14:18:58.794Z,4.80
2019-06-26T14:21:29.416Z,4.57
2019-06-26T14:24:00.210Z,4.28
2019-06-26T14:26:30.489Z,4.90
2019-06-26T14:29:01.222Z,4.30
2019-06-26T14:31:31.706Z,5.07
2019-06-26T14:34:02.455Z,4.50
2019-06-26T14:36:32.842Z,5.10
2019-06-26T14:39:03.410Z,4.60
2019-06-26T14:41:38.995Z,5.00
2019-06-26T14:44:07.672Z,5.07
2019-06-26T14:46:37.918Z,5.03
2019-06-26T14:49:08.722Z,6.07
2019-06-26T14:51:46.694Z,4.40
2019-06-26T14:54:10.967Z,4.50
2019-06-26T14:56:42.551Z,5.20
2019-06-26T14:59:12.699Z,5.53
2019-06-26T15:01:43.010Z,5.33
2019-06-26T15:04:13.248Z,5.10
2019-06-26T15:06:44.027Z,5.20
2019-06-26T15:09:14.267Z,4.90
2019-06-26T15:11:44.565Z,4.30
2019-06-26T15:14:14.851Z,5.30
2019-06-26T15:16:45.211Z,4.83
2019-06-26T15:19:15.817Z,5.47
2019-06-26T15:21:57.758Z,5.53
2019-06-26T15:24:18.985Z,4.10
2019-06-26T15:26:49.447Z,5.20
2019-06-26T15:29:19.875Z,4.20
2019-06-26T15:31:50.340Z,4.23
2019-06-26T15:34:20.781Z,4.97
2019-06-26T15:36:52.489Z,4.87
2019-06-26T15:39:22.716Z,5.17
2019-06-26T15:41:53.052Z,4.80
2019-06-26T15:44:23.569Z,4.20
2019-06-26T15:46:54.028Z,4.50
2019-06-26T15:49:24.343Z,5.20
2019-06-26T15:51:54.554Z,4.90
2019-06-26T15:54:24.870Z,6.17
2019-06-26T15:56:55.418Z,5.23
2019-06-26T15:59:26.201Z,5.00
2019-06-26T16:01:56.614Z,5.67
2019-06-26T16:04:27.020Z,5.00
2019-06-26T16:06:57.821Z,5.90
2019-06-26T16:09:28.138Z,5.33
2019-06-26T16:11:59.125Z,4.93
2019-06-26T16:14:29.435Z,5.07
2019-06-26T16:17:03.064Z,5.00
2019-06-26T16:19:33.267Z,5.00
2019-06-26T16:22:03.981Z,5.03
2019-06-26T16:24:34.239Z,5.17
2019-06-26T16:27:04.764Z,4.90
2019-06-26T16:29:35.189Z,5.20
2019-06-26T16:32:05.531Z,4.93
2019-06-26T16:34:35.771Z,5.10
2019-06-26T16:37:06.169Z,4.90
2019-06-26T16:39:36.737Z,5.00
2019-06-26T16:42:07.070Z,4.63
2019-06-26T16:44:37.499Z,5.00
2019-06-26T16:47:08.089Z,5.60
2019-06-26T16:49:38.633Z,5.77
2019-06-26T16:52:09.055Z,4.43
2019-06-26T16:54:39.403Z,5.30
2019-06-26T16:57:09.646Z,6.50
2019-06-26T16:59:39.993Z,5.47
2019-06-26T17:02:10.470Z,5.23
2019-06-26T17:04:40.866Z,4.90
2019-06-26T17:07:12.138Z,5.60
2019-06-26T17:09:44.457Z,5.00
2019-06-26T17:12:14.565Z,5.30
2019-06-26T17:14:45.068Z,5.20
2019-06-26T17:17:16.738Z,4.60
2019-06-26T17:19:47.028Z,5.87
2019-06-26T17:22:17.621Z,5.23
2019-06-26T17:24:48.266Z,5.47
2019-06-26T17:27:18.718Z,4.93
2019-06-26T17:29:48.930Z,5.63
2019-06-26T17:32:19.097Z,5.30
2019-06-26T17:34:49.997Z,5.80
2019-06-26T17:37:20.298Z,5.40
2019-06-26T17:39:50.596Z,6.10
2019-06-26T17:42:24.127Z,5.30
2019-06-26T17:44:56.852Z,6.20
2019-06-26T17:47:27.309Z,8.77
2019-06-26T17:49:57.741Z,5.77
2019-06-26T17:52:28.405Z,6.20
2019-06-26T17:54:58.732Z,5.60
2019-06-26T17:57:29.710Z,4.93
2019-06-26T17:59:59.936Z,6.23
2019-06-26T18:02:30.384Z,5.37
2019-06-26T18:05:01.084Z,5.60
2019-06-26T18:07:31.442Z,6.90
2019-06-26T18:10:01.754Z,5.37
2019-06-26T18:12:32.102Z,5.00
2019-06-26T18:15:02.710Z,6.03
2019-06-26T18:17:33.369Z,14.07
2019-06-26T18:20:04.109Z,10.17
2019-06-26T18:22:34.769Z,11.00
2019-06-26T18:25:05.207Z,7.80
2019-06-26T18:27:35.648Z,6.93
2019-06-26T18:30:06.833Z,6.73
2019-06-26T18:32:37.591Z,7.63
2019-06-26T18:35:08.223Z,8.07
2019-06-26T18:37:38.855Z,6.70
2019-06-26T18:40:09.365Z,6.77
2019-06-26T18:42:40.026Z,7.40
2019-06-26T18:45:11.245Z,6.60
2019-06-26T18:47:42.088Z,6.60
2019-06-26T18:50:13.646Z,6.08
2019-06-26T18:52:44.378Z,6.00
2019-06-26T18:55:15.083Z,7.30
2019-06-26T18:57:45.853Z,6.60
2019-06-26T19:00:17.471Z,7.50
2019-06-26T19:02:49.010Z,6.83
2019-06-26T19:05:19.986Z,6.53
2019-06-26T19:07:50.551Z,6.97
2019-06-26T19:10:21.289Z,7.33
2019-06-26T19:12:53.055Z,6.60
2019-06-26T19:15:24.912Z,8.08
2019-06-26T19:17:57.246Z,7.07
2019-06-26T19:20:28.435Z,7.53
2019-06-26T19:22:59.067Z,6.97
2019-06-26T19:25:30.227Z,6.77
2019-06-26T19:28:01.199Z,6.90
2019-06-26T19:30:31.796Z,6.77
2019-06-26T19:33:03.180Z,7.43
2019-06-26T19:35:33.962Z,7.50
2019-06-26T19:38:04.934Z,7.63
2019-06-26T19:40:35.943Z,6.90
2019-06-26T19:43:11.007Z,7.53
2019-06-26T19:45:47.042Z,8.20
2019-06-26T19:48:18.543Z,7.43
2019-06-26T19:50:49.430Z,8.73
2019-06-26T19:53:20.706Z,7.70
2019-06-26T19:55:51.944Z,7.03
2019-06-26T19:58:22.742Z,7.80
2019-06-26T20:00:53.567Z,8.57
2019-06-26T20:03:24.267Z,6.90
2019-06-26T20:05:54.949Z,7.92
2019-06-26T20:08:26.680Z,8.50
2019-06-26T20:10:57.137Z,8.13
2019-06-26T20:13:27.580Z,9.27
2019-06-26T20:15:58.634Z,8.77
2019-06-26T20:18:29.318Z,9.23
2019-06-26T20:20:59.864Z,9.80
2019-06-26T20:23:30.652Z,8.50
2019-06-26T20:26:01.896Z,8.87
2019-06-26T20:28:32.622Z,9.00
2019-06-26T20:31:03.624Z,9.27
2019-06-26T20:33:34.346Z,8.97
2019-06-26T20:36:04.879Z,9.30
2019-06-26T20:38:35.351Z,10.17
2019-06-26T20:41:06.282Z,10.63
2019-06-26T20:43:36.633Z,8.53
2019-06-26T20:46:07.405Z,9.70
2019-06-26T20:48:38.057Z,9.93
2019-06-26T20:51:08.673Z,9.33
2019-06-26T20:53:41.224Z,8.93
2019-06-26T20:56:11.552Z,9.33
2019-06-26T20:58:42.141Z,9.87
2019-06-26T21:01:12.756Z,9.50
2019-06-26T21:03:43.404Z,9.87
2019-06-26T21:06:14.156Z,10.13
2019-06-26T21:08:45.856Z,10.13
2019-06-26T21:11:17.005Z,10.03
2019-06-26T21:13:47.485Z,9.90
2019-06-26T21:16:17.991Z,10.90
2019-06-26T21:18:49.427Z,10.40
2019-06-26T21:21:20.091Z,10.17
2019-06-26T21:23:50.761Z,10.60
2019-06-26T21:26:21.428Z,10.13
2019-06-26T21:28:52.114Z,11.10
2019-06-26T21:31:23.013Z,9.50
2019-06-26T21:33:54.134Z,10.53
2019-06-26T21:36:25.367Z,10.27
2019-06-26T21:38:57.373Z,9.60
2019-06-26T21:41:28.291Z,9.50
2019-06-26T21:43:58.754Z,10.50
2019-06-26T21:46:29.275Z,10.60
2019-06-26T21:48:59.795Z,10.83
2019-06-26T21:51:30.485Z,11.70
2019-06-26T21:54:00.648Z,10.70
2019-06-26T21:56:49.117Z,10.37
2019-06-26T21:59:37.600Z,9.50
2019-06-26T22:02:25.799Z,10.00
2019-06-26T22:04:57.820Z,9.93
2019-06-26T22:07:29.955Z,10.23
2019-06-26T22:10:17.958Z,10.80
2019-06-26T22:12:48.236Z,10.20
2019-06-26T22:15:19.378Z,9.77
2019-06-26T22:17:49.909Z,9.80
2019-06-26T22:20:20.434Z,11.70
2019-06-26T22:22:50.667Z,10.72
2019-06-26T22:25:20.973Z,11.20
2019-06-26T22:27:51.102Z,11.00
2019-06-26T22:30:21.518Z,10.20
2019-06-26T22:32:51.709Z,10.77
2019-06-26T22:35:23.312Z,10.90
2019-06-26T22:37:54.739Z,10.60
2019-06-26T22:40:25.104Z,11.27
2019-06-26T22:42:55.389Z,9.67
2019-06-26T22:45:25.738Z,10.37
2019-06-26T22:47:56.352Z,10.43
2019-06-26T22:50:26.680Z,10.70
2019-06-26T22:52:56.997Z,10.87
2019-06-26T22:55:27.333Z,10.70
2019-06-26T22:57:57.582Z,10.60
2019-06-26T23:00:28.886Z,10.77
2019-06-26T23:02:59.543Z,11.43
2019-06-26T23:05:31.331Z,10.20
2019-06-26T23:08:01.533Z,9.18
2019-06-26T23:10:32.089Z,10.67
2019-06-26T23:13:02.411Z,10.90
2019-06-26T23:15:32.762Z,11.43
2019-06-26T23:18:03.169Z,10.87
2019-06-26T23:20:33.821Z,10.30
2019-06-26T23:23:04.205Z,10.33
2019-06-26T23:25:34.436Z,10.30
2019-06-26T23:28:04.630Z,10.23
2019-06-26T23:30:34.941Z,12.07
2019-06-26T23:33:05.095Z,11.20
2019-06-26T23:35:35.312Z,11.90
2019-06-26T23:38:05.750Z,11.30
2019-06-26T23:40:35.922Z,10.80
2019-06-26T23:43:06.162Z,10.43
2019-06-26T23:45:36.622Z,12.30
2019-06-26T23:48:07.636Z,11.23
2019-06-26T23:50:39.131Z,11.20
2019-06-26T23:53:10.461Z,12.63
2019-06-26T23:55:40.732Z,11.80
2019-06-26T23:58:10.837Z,11.10
